createdAt,value
2022-11-01T00:01:05.394Z,98565.47
2022-11-01T00:03:37.909Z,98572.03
2022-11-01T00:06:05.741Z,98565.47
2022-11-01T00:08:34.562Z,98566.91
2022-11-01T00:11:39.458Z,98574.25
2022-11-01T00:14:06.842Z,98574.81
2022-11-01T00:16:43.553Z,98564.56
2022-11-01T00:19:27.646Z,98573.84
2022-11-01T00:21:54.813Z,98569.50
2022-11-01T00:24:27.647Z,98567.91
2022-11-01T00:26:57.599Z,98565.78
2022-11-01T00:29:34.267Z,98560.34
2022-11-01T00:32:02.011Z,98563.06
2022-11-01T00:34:29.376Z,98552.69
2022-11-01T00:36:56.399Z,98545.16
2022-11-01T00:39:33.486Z,98551.88
2022-11-01T00:44:54.019Z,98562.66
2022-11-01T00:47:20.441Z,98566.69
2022-11-01T00:49:46.830Z,98571.53
2022-11-01T00:52:13.260Z,98562.56
2022-11-01T00:54:39.597Z,98566.41
2022-11-01T00:57:05.929Z,98569.41
2022-11-01T00:59:32.296Z,98564.56
2022-11-01T01:01:58.790Z,98565.38
2022-11-01T01:04:25.223Z,98571.63
2022-11-01T01:06:52.100Z,98564.56
2022-11-01T01:09:18.430Z,98561.06
2022-11-01T01:11:44.807Z,98555.13
2022-11-01T01:14:11.660Z,98554.31
2022-11-01T01:16:38.043Z,98560.84
2022-11-01T01:19:04.513Z,98567.38
2022-11-01T01:21:31.053Z,98557.94
2022-11-01T01:23:57.402Z,98557.13
2022-11-01T01:26:23.760Z,98560.16
2022-11-01T01:28:53.770Z,98557.69
2022-11-01T01:31:20.141Z,98544.66
2022-11-01T01:33:46.474Z,98538.63
2022-11-01T01:36:12.830Z,98549.47
2022-11-01T01:38:39.371Z,98547.06
2022-11-01T01:41:24.676Z,98552.19
2022-11-01T01:43:52.185Z,98541.63
2022-11-01T01:46:43.101Z,98535.41
2022-11-01T01:49:18.688Z,98535.41
2022-11-01T01:51:52.110Z,98544.84
2022-11-01T01:54:24.761Z,98539.41
2022-11-01T01:56:55.594Z,98535.09
2022-11-01T01:59:29.550Z,98533.19
2022-11-01T02:02:07.635Z,98534.28
2022-11-01T02:05:00.423Z,98527.75
2022-11-01T02:07:30.552Z,98530.16
2022-11-01T02:10:06.457Z,98537.22
2022-11-01T02:12:54.940Z,98545.56
2022-11-01T02:15:36.363Z,98547.66
2022-11-01T02:18:27.194Z,98544.66
2022-11-01T02:21:10.942Z,98551.41
2022-11-01T02:23:59.807Z,98550.28
2022-11-01T02:26:55.715Z,98545.66
2022-11-01T02:29:31.918Z,98532.88
2022-11-01T02:32:19.762Z,98539.41
2022-11-01T02:34:51.389Z,98541.03
2022-11-01T02:37:47.465Z,98539.94
2022-11-01T02:40:27.666Z,98549.38
2022-11-01T02:43:04.446Z,98542.03
2022-11-01T02:45:41.869Z,98540.94
2022-11-01T02:48:08.538Z,98536.00
2022-11-01T02:50:45.465Z,98536.19
2022-11-01T02:53:12.829Z,98544.25
2022-11-01T02:55:39.331Z,98555.81
2022-11-01T02:58:13.133Z,98552.00
2022-11-01T03:00:39.554Z,98553.75
2022-11-01T03:03:25.312Z,98569.56
2022-11-01T03:06:02.967Z,98582.63
2022-11-01T03:08:43.111Z,98565.88
2022-11-01T03:11:17.642Z,98571.50
2022-11-01T03:14:00.581Z,98560.63
2022-11-01T03:16:47.043Z,98559.44
2022-11-01T03:19:37.801Z,98569.31
2022-11-01T03:22:17.110Z,98577.19
2022-11-01T03:24:59.204Z,98582.81
2022-11-01T03:27:28.590Z,98572.44
2022-11-01T03:30:00.896Z,98560.31
2022-11-01T03:32:41.174Z,98575.56
2022-11-01T03:35:10.285Z,98578.44
2022-11-01T03:37:40.165Z,98586.44
2022-11-01T03:40:08.505Z,98596.00
2022-11-01T03:42:37.992Z,98594.22
2022-11-01T03:45:10.457Z,98606.81
2022-11-01T03:47:37.420Z,98605.78
2022-11-01T03:50:27.423Z,98611.38
2022-11-01T03:52:54.605Z,98606.03
2022-11-01T03:55:22.055Z,98617.50
2022-11-01T03:57:50.533Z,98621.03
2022-11-01T04:00:44.482Z,98624.44
2022-11-01T04:03:12.431Z,98624.03
2022-11-01T04:05:41.093Z,98623.63
2022-11-01T04:08:09.493Z,98632.16
2022-11-01T04:10:35.883Z,98630.34
2022-11-01T04:13:08.042Z,98631.84
2022-11-01T04:15:56.515Z,98641.00
2022-11-01T04:18:44.082Z,98646.94
2022-11-01T04:24:12.285Z,98645.84
2022-11-01T04:26:49.007Z,98639.78
2022-11-01T04:29:19.038Z,98652.28
2022-11-01T04:31:45.851Z,98653.28
2022-11-01T04:34:45.562Z,98652.69
2022-11-01T04:37:19.409Z,98654.81
2022-11-01T04:39:49.606Z,98656.91
2022-11-01T04:42:48.639Z,98656.91
2022-11-01T04:45:15.153Z,98660.13
2022-11-01T04:47:50.789Z,98661.28
2022-11-01T04:50:18.125Z,98659.88
2022-11-01T04:52:44.438Z,98673.19
2022-11-01T04:55:10.812Z,98682.16
2022-11-01T04:58:00.462Z,98684.28
2022-11-01T05:00:27.367Z,98679.72
2022-11-01T05:03:01.543Z,98684.91
2022-11-01T05:05:28.263Z,98700.69
2022-11-01T05:08:02.988Z,98686.19
2022-11-01T05:10:29.669Z,98690.09
2022-11-01T05:12:56.203Z,98705.53
2022-11-01T05:15:22.752Z,98711.03
2022-11-01T05:17:49.181Z,98705.13
2022-11-01T05:20:15.846Z,98720.59
2022-11-01T05:22:42.236Z,98720.03
2022-11-01T05:25:11.512Z,98729.75
2022-11-01T05:27:38.521Z,98725.25
2022-11-01T05:30:06.396Z,98717.59
2022-11-01T05:32:32.721Z,98717.91
2022-11-01T05:34:59.111Z,98712.75
2022-11-01T05:37:28.052Z,98707.44
2022-11-01T05:39:54.713Z,98704.38
2022-11-01T05:42:21.089Z,98713.63
2022-11-01T05:44:47.561Z,98711.09
2022-11-01T05:47:17.257Z,98717.03
2022-11-01T05:49:44.415Z,98704.84
2022-11-01T05:52:10.838Z,98688.78
2022-11-01T05:54:37.182Z,98704.66
2022-11-01T05:57:05.486Z,98701.41
2022-11-01T05:59:31.801Z,98718.91
2022-11-01T06:01:58.249Z,98723.31
2022-11-01T06:04:24.670Z,98730.22
2022-11-01T06:06:51.004Z,98725.56
2022-11-01T06:09:17.332Z,98731.03
2022-11-01T06:11:43.705Z,98731.34
2022-11-01T06:14:10.534Z,98725.09
2022-11-01T06:16:36.851Z,98740.47
2022-11-01T06:19:03.252Z,98750.91
2022-11-01T06:21:30.473Z,98746.09
2022-11-01T06:23:56.966Z,98741.22
2022-11-01T06:26:23.334Z,98741.34
2022-11-01T06:28:49.753Z,98747.75
2022-11-01T06:31:16.263Z,98755.94
2022-11-01T06:33:42.666Z,98752.22
2022-11-01T06:36:09.347Z,98752.16
2022-11-01T06:38:36.066Z,98754.53
2022-11-01T06:41:02.578Z,98750.31
2022-11-01T06:46:19.087Z,98762.28
2022-11-01T06:48:51.528Z,98770.25
2022-11-01T06:51:22.169Z,98802.78
2022-11-01T06:53:48.497Z,98822.78
2022-11-01T06:56:14.874Z,98811.09
2022-11-01T06:58:41.225Z,98814.78
2022-11-01T07:01:07.721Z,98809.53
2022-11-01T07:03:34.230Z,98813.25
2022-11-01T07:06:00.782Z,98823.53
2022-11-01T07:14:07.653Z,98813.19
2022-11-01T07:16:34.035Z,98809.06
2022-11-01T07:19:00.352Z,98808.75
2022-11-01T07:21:27.173Z,98821.25
2022-11-01T07:23:57.909Z,98816.59
2022-11-01T07:26:24.263Z,98825.31
2022-11-01T07:28:50.625Z,98821.47
2022-11-01T07:31:18.083Z,98818.72
2022-11-01T07:33:44.458Z,98814.88
2022-11-01T07:36:10.836Z,98812.16
2022-11-01T07:38:42.067Z,98823.56
2022-11-01T07:41:09.101Z,98822.44
2022-11-01T07:43:36.696Z,98830.31
2022-11-01T07:46:07.101Z,98831.94
2022-11-01T07:48:35.041Z,98840.28
2022-11-01T07:51:03.394Z,98840.50
2022-11-01T07:53:29.720Z,98844.81
2022-11-01T07:55:56.134Z,98849.66
2022-11-01T07:58:22.561Z,98859.16
2022-11-01T08:00:48.990Z,98853.88
2022-11-01T08:03:17.934Z,98852.97
2022-11-01T08:05:47.442Z,98856.06
2022-11-01T08:08:15.245Z,98857.56
2022-11-01T08:10:42.429Z,98860.66
2022-11-01T08:13:14.237Z,98861.31
2022-11-01T08:15:40.920Z,98877.44
2022-11-01T08:18:10.682Z,98879.09
2022-11-01T08:20:37.477Z,98878.00
2022-11-01T08:23:05.105Z,98877.56
2022-11-01T08:25:31.850Z,98877.59
2022-11-01T08:28:07.348Z,98885.19
2022-11-01T08:30:34.732Z,98887.97
2022-11-01T08:33:02.690Z,98885.41
2022-11-01T08:35:30.554Z,98889.75
2022-11-01T08:37:58.912Z,98898.44
2022-11-01T08:43:17.364Z,98892.63
2022-11-01T08:45:44.274Z,98893.44
2022-11-01T08:48:11.982Z,98894.75
2022-11-01T08:50:41.380Z,98896.53
2022-11-01T08:53:11.289Z,98892.06
2022-11-01T08:55:38.512Z,98899.66
2022-11-01T08:58:06.315Z,98891.63
2022-11-01T09:00:34.320Z,98903.81
2022-11-01T09:03:00.807Z,98895.34
2022-11-01T09:05:29.371Z,98905.94
2022-11-01T09:07:57.326Z,98899.03
2022-11-01T09:10:24.109Z,98897.09
2022-11-01T09:12:50.517Z,98896.28
2022-11-01T09:15:17.189Z,98894.19
2022-11-01T09:17:43.519Z,98908.69
2022-11-01T09:20:10.990Z,98912.53
2022-11-01T09:22:38.657Z,98919.59
2022-11-01T09:25:05.906Z,98925.88
2022-11-01T09:27:32.842Z,98916.22
2022-11-01T09:29:59.179Z,98927.03
2022-11-01T09:32:28.862Z,98907.09
2022-11-01T09:34:55.256Z,98917.88
2022-11-01T09:37:21.624Z,98915.31
2022-11-01T09:39:48.055Z,98921.94
2022-11-01T09:42:23.613Z,98917.94
2022-11-01T09:44:53.752Z,98913.91
2022-11-01T09:47:32.964Z,98908.91
2022-11-01T09:50:17.252Z,98918.88
2022-11-01T09:52:43.988Z,98923.50
2022-11-01T09:55:16.089Z,98928.03
2022-11-01T09:57:53.343Z,98920.22
2022-11-01T10:00:21.219Z,98929.59
2022-11-01T10:03:17.756Z,98918.88
2022-11-01T10:05:48.754Z,98925.88
2022-11-01T10:08:24.408Z,98930.22
2022-11-01T10:11:08.865Z,98923.91
2022-11-01T10:14:05.448Z,98932.31
2022-11-01T10:16:46.408Z,98923.53
2022-11-01T10:19:18.928Z,98930.75
2022-11-01T10:21:54.410Z,98932.53
2022-11-01T10:24:28.737Z,98939.03
2022-11-01T10:27:02.713Z,98934.53
2022-11-01T10:29:50.601Z,98932.59
2022-11-01T10:32:29.452Z,98932.75
2022-11-01T10:35:02.113Z,98929.34
2022-11-01T10:38:23.587Z,98943.06
2022-11-01T10:40:56.448Z,98939.16
2022-11-01T10:43:25.460Z,98929.34
2022-11-01T10:45:55.733Z,98931.72
2022-11-01T10:51:27.528Z,98930.78
2022-11-01T10:53:57.239Z,98925.00
2022-11-01T10:56:45.120Z,98927.59
2022-11-01T10:59:22.913Z,98926.34
2022-11-01T11:01:52.923Z,98926.19
2022-11-01T11:04:24.638Z,98931.34
2022-11-01T11:06:54.423Z,98924.94
2022-11-01T11:09:34.350Z,98938.16
2022-11-01T11:12:11.150Z,98920.09
2022-11-01T11:14:39.082Z,98934.28
2022-11-01T11:17:15.688Z,98934.94
2022-11-01T11:19:46.748Z,98928.31
2022-11-01T11:22:14.080Z,98932.66
2022-11-01T11:24:43.807Z,98932.03
2022-11-01T11:27:16.336Z,98926.53
2022-11-01T11:29:50.727Z,98943.91
2022-11-01T11:32:32.463Z,98938.97
2022-11-01T11:35:00.293Z,98936.69
2022-11-01T11:37:31.799Z,98935.88
2022-11-01T11:40:15.804Z,98934.41
2022-11-01T11:42:43.109Z,98927.78
2022-11-01T11:45:30.775Z,98931.66
2022-11-01T11:48:15.686Z,98925.25
2022-11-01T11:50:43.109Z,98933.63
2022-11-01T11:56:12.320Z,98922.09
2022-11-01T11:58:48.162Z,98925.66
2022-11-01T12:01:21.692Z,98934.06
2022-11-01T12:03:58.526Z,98930.69
2022-11-01T12:06:27.433Z,98931.66
2022-11-01T12:09:00.360Z,98936.53
2022-11-01T12:11:40.150Z,98938.66
2022-11-01T12:14:27.594Z,98947.19
2022-11-01T12:16:53.995Z,98942.72
2022-11-01T12:19:31.757Z,98932.59
2022-11-01T12:22:01.678Z,98945.97
2022-11-01T12:24:49.644Z,98944.34
2022-11-01T12:27:24.717Z,98947.91
2022-11-01T12:30:10.252Z,98937.72
2022-11-01T12:33:26.445Z,98948.84
2022-11-01T12:35:54.552Z,98947.06
2022-11-01T12:38:52.311Z,98945.94
2022-11-01T12:41:35.237Z,98945.28
2022-11-01T12:44:10.983Z,98954.16
2022-11-01T12:46:55.976Z,98957.84
2022-11-01T12:49:40.768Z,98956.69
2022-11-01T12:52:34.831Z,98952.19
2022-11-01T12:55:50.683Z,98949.16
2022-11-01T12:58:19.671Z,98959.16
2022-11-01T13:01:01.290Z,98949.00
2022-11-01T13:03:50.779Z,98948.03
2022-11-01T13:06:42.870Z,98953.50
2022-11-01T13:09:32.835Z,98953.31
2022-11-01T13:12:24.026Z,98947.56
2022-11-01T13:15:09.827Z,98946.75
2022-11-01T13:18:02.480Z,98942.06
2022-11-01T13:20:35.959Z,98944.16
2022-11-01T13:23:11.432Z,98952.03
2022-11-01T13:25:59.637Z,98943.22
2022-11-01T13:32:06.027Z,98955.13
2022-11-01T13:34:47.660Z,98950.44
2022-11-01T13:37:47.059Z,98940.44
2022-11-01T13:40:21.750Z,98940.47
2022-11-01T13:43:05.311Z,98940.97
2022-11-01T13:46:00.053Z,98940.81
2022-11-01T13:48:53.955Z,98944.47
2022-11-01T13:51:33.151Z,98951.38
2022-11-01T13:54:46.783Z,98947.56
2022-11-01T13:57:19.790Z,98953.19
2022-11-01T13:59:59.036Z,98959.34
2022-11-01T14:02:25.481Z,98953.03
2022-11-01T14:05:12.563Z,98955.00
2022-11-01T14:08:04.990Z,98947.91
2022-11-01T14:10:31.748Z,98949.47
2022-11-01T14:12:59.425Z,98937.72
2022-11-01T14:15:29.605Z,98944.97
2022-11-01T14:18:03.315Z,98938.69
2022-11-01T14:20:31.420Z,98949.16
2022-11-01T14:22:59.678Z,98946.75
2022-11-01T14:25:31.547Z,98949.34
2022-11-01T14:28:17.300Z,98950.63
2022-11-01T14:30:47.425Z,98946.09
2022-11-01T14:33:16.734Z,98944.81
2022-11-01T14:35:51.658Z,98945.94
2022-11-01T14:38:23.657Z,98957.38
2022-11-01T14:40:57.872Z,98952.50
2022-11-01T14:43:24.224Z,98954.63
2022-11-01T14:46:02.585Z,98951.25
2022-11-01T14:48:41.532Z,98963.78
2022-11-01T14:51:24.903Z,98959.63
2022-11-01T14:54:00.130Z,98967.19
2022-11-01T14:56:40.690Z,98972.78
2022-11-01T14:59:19.371Z,98971.50
2022-11-01T15:01:48.179Z,98985.66
2022-11-01T15:04:23.251Z,98987.13
2022-11-01T15:06:51.014Z,98985.81
2022-11-01T15:09:25.098Z,98984.69
2022-11-01T15:11:54.114Z,98988.19
2022-11-01T15:14:34.641Z,98982.25
2022-11-01T15:17:01.221Z,98981.38
2022-11-01T15:19:35.493Z,98978.63
2022-11-01T15:22:03.566Z,98975.53
2022-11-01T15:24:33.769Z,98978.22
2022-11-01T15:27:12.251Z,98985.75
2022-11-01T15:29:38.676Z,98981.53
2022-11-01T15:32:05.577Z,98989.84
2022-11-01T15:34:36.402Z,98988.88
2022-11-01T15:37:36.359Z,98991.75
2022-11-01T15:40:28.445Z,98991.25
2022-11-01T15:43:04.055Z,98990.75
2022-11-01T15:45:37.519Z,98995.41
2022-11-01T15:48:22.498Z,99000.06
2022-11-01T15:50:57.336Z,98996.22
2022-11-01T15:53:35.243Z,98993.00
2022-11-01T15:56:08.699Z,98990.22
2022-11-01T15:58:45.447Z,98989.03
2022-11-01T16:01:24.343Z,98995.56
2022-11-01T16:04:15.103Z,98991.47
2022-11-01T16:06:57.622Z,98989.19
2022-11-01T16:09:48.622Z,99004.53
2022-11-01T16:12:31.066Z,99006.78
2022-11-01T16:15:40.930Z,99004.81
2022-11-01T16:18:17.321Z,99010.97
2022-11-01T16:20:56.144Z,99016.56
2022-11-01T16:23:32.977Z,99018.91
2022-11-01T16:26:11.658Z,99032.94
2022-11-01T16:28:41.088Z,99023.56
2022-11-01T16:31:18.686Z,99038.41
2022-11-01T16:33:47.361Z,99028.72
2022-11-01T16:36:20.138Z,99036.19
2022-11-01T16:38:52.412Z,99042.84
2022-11-01T16:41:37.909Z,99048.72
2022-11-01T16:44:18.492Z,99043.16
2022-11-01T16:46:49.000Z,99038.59
2022-11-01T16:49:26.700Z,99046.28
2022-11-01T16:51:57.432Z,99047.41
2022-11-01T16:54:29.017Z,99046.28
2022-11-01T16:57:00.735Z,99050.72
2022-11-01T16:59:34.018Z,99051.31
2022-11-01T17:02:04.014Z,99062.22
2022-11-01T17:04:31.795Z,99063.84
2022-11-01T17:06:59.070Z,99066.88
2022-11-01T17:09:31.192Z,99074.81
2022-11-01T17:12:04.435Z,99073.31
2022-11-01T17:14:45.929Z,99063.59
2022-11-01T17:17:17.757Z,99067.03
2022-11-01T17:19:54.159Z,99070.13
2022-11-01T17:22:31.990Z,99081.34
2022-11-01T17:25:33.030Z,99083.75
2022-11-01T17:30:27.094Z,99084.47
2022-11-01T17:32:53.423Z,99091.84
2022-11-01T17:35:21.603Z,99095.06
2022-11-01T17:37:51.025Z,99095.28
2022-11-01T17:40:22.281Z,99094.47
2022-11-01T17:42:48.640Z,99095.78
2022-11-01T17:45:15.159Z,99094.47
2022-11-01T17:47:41.635Z,99092.06
2022-11-01T17:50:12.771Z,99100.81
2022-11-01T17:52:39.216Z,99099.78
2022-11-01T17:55:07.015Z,99103.44
2022-11-01T17:57:34.286Z,99105.41
2022-11-01T18:00:01.557Z,99106.53
2022-11-01T18:02:28.274Z,99102.19
2022-11-01T18:04:55.000Z,99110.94
2022-11-01T18:07:21.354Z,99111.56
2022-11-01T18:09:47.894Z,99111.63
2022-11-01T18:12:23.330Z,99116.34
2022-11-01T18:15:08.491Z,99119.06
2022-11-01T18:18:07.673Z,99117.75
2022-11-01T18:21:16.082Z,99124.25
2022-11-01T18:23:46.025Z,99120.50
2022-11-01T18:26:20.209Z,99115.66
2022-11-01T18:28:46.662Z,99124.19
2022-11-01T18:31:25.654Z,99119.63
2022-11-01T18:34:21.380Z,99119.13
2022-11-01T18:36:53.552Z,99131.69
2022-11-01T18:39:45.279Z,99127.13
2022-11-01T18:42:12.657Z,99123.88
2022-11-01T18:44:39.025Z,99125.81
2022-11-01T18:47:14.333Z,99119.34
2022-11-01T18:49:40.733Z,99117.50
2022-11-01T18:52:14.185Z,99116.75
2022-11-01T18:54:55.193Z,99121.44
2022-11-01T18:57:23.755Z,99117.41
2022-11-01T18:59:53.004Z,99119.63
2022-11-01T19:02:26.812Z,99130.03
2022-11-01T19:08:25.147Z,99122.50
2022-11-01T19:10:52.948Z,99125.31
2022-11-01T19:13:29.013Z,99121.03
2022-11-01T19:15:57.853Z,99110.72
2022-11-01T19:18:24.732Z,99119.47
2022-11-01T19:21:00.762Z,99113.56
2022-11-01T19:23:46.562Z,99120.66
2022-11-01T19:26:27.311Z,99123.69
2022-11-01T19:28:54.212Z,99124.53
2022-11-01T19:31:30.472Z,99116.72
2022-11-01T19:34:02.208Z,99109.47
2022-11-01T19:39:23.022Z,99111.72
2022-11-01T19:41:50.626Z,99107.94
2022-11-01T19:44:24.091Z,99115.56
2022-11-01T19:46:55.050Z,99117.75
2022-11-01T19:49:26.958Z,99118.84
2022-11-01T19:52:09.319Z,99123.75
2022-11-01T19:54:38.762Z,99118.91
2022-11-01T19:57:31.663Z,99112.41
2022-11-01T20:00:20.377Z,99123.84
2022-11-01T20:02:48.759Z,99126.00
2022-11-01T20:05:33.041Z,99125.78
2022-11-01T20:11:10.250Z,99122.88
2022-11-01T20:13:36.649Z,99125.88
2022-11-01T20:16:03.032Z,99130.50
2022-11-01T20:18:29.486Z,99134.88
2022-11-01T20:20:56.509Z,99131.63
2022-11-01T20:23:27.046Z,99136.25
2022-11-01T20:25:54.782Z,99135.72
2022-11-01T20:28:21.113Z,99143.88
2022-11-01T20:30:47.609Z,99143.06
2022-11-01T20:33:13.965Z,99152.31
2022-11-01T20:35:40.352Z,99156.09
2022-11-01T20:38:06.799Z,99156.69
2022-11-01T20:40:33.260Z,99159.72
2022-11-01T20:43:00.230Z,99162.44
2022-11-01T20:45:26.893Z,99151.34
2022-11-01T20:47:53.374Z,99157.31
2022-11-01T20:50:19.798Z,99158.41
2022-11-01T20:52:46.679Z,99155.19
2022-11-01T20:55:13.438Z,99157.34
2022-11-01T20:57:39.829Z,99159.81
2022-11-01T21:00:10.056Z,99166.09
2022-11-01T21:02:36.530Z,99158.53
2022-11-01T21:05:06.102Z,99160.69
2022-11-01T21:07:43.666Z,99157.44
2022-11-01T21:10:27.182Z,99165.06
2022-11-01T21:12:53.865Z,99159.94
2022-11-01T21:15:29.338Z,99153.13
2022-11-01T21:18:24.700Z,99158.56
2022-11-01T21:20:51.184Z,99153.19
2022-11-01T21:23:31.963Z,99151.03
2022-11-01T21:26:00.948Z,99158.63
2022-11-01T21:28:31.288Z,99159.19
2022-11-01T21:31:11.292Z,99155.13
2022-11-01T21:33:40.429Z,99167.63
2022-11-01T21:36:18.960Z,99161.97
2022-11-01T21:39:00.609Z,99173.63
2022-11-01T21:41:33.301Z,99175.00
2022-11-01T21:44:13.221Z,99178.00
2022-11-01T21:46:39.668Z,99180.16
2022-11-01T21:49:19.654Z,99177.75
2022-11-01T21:51:46.074Z,99176.94
2022-11-01T21:54:12.405Z,99180.47
2022-11-01T21:56:38.760Z,99169.63
2022-11-01T21:59:05.234Z,99173.13
2022-11-01T22:01:37.226Z,99183.16
2022-11-01T22:04:03.804Z,99181.75
2022-11-01T22:06:30.148Z,99180.66
2022-11-01T22:08:56.518Z,99177.06
2022-11-01T22:11:23.872Z,99173.78
2022-11-01T22:13:50.883Z,99179.16
2022-11-01T22:16:17.233Z,99182.44
2022-11-01T22:18:43.578Z,99179.16
2022-11-01T22:21:09.969Z,99176.97
2022-11-01T22:23:36.301Z,99172.09
2022-11-01T22:26:02.658Z,99179.66
2022-11-01T22:28:29.010Z,99179.09
2022-11-01T22:30:55.357Z,99176.41
2022-11-01T22:33:21.762Z,99179.09
2022-11-01T22:35:48.117Z,99188.31
2022-11-01T22:38:19.971Z,99186.69
2022-11-01T22:40:51.807Z,99188.88
2022-11-01T22:43:18.899Z,99191.88
2022-11-01T22:45:45.249Z,99188.66
2022-11-01T22:48:17.567Z,99200.84
2022-11-01T22:50:44.177Z,99199.25
2022-11-01T22:53:23.301Z,99196.00
2022-11-01T22:55:52.366Z,99197.63
2022-11-01T22:58:49.907Z,99199.81
2022-11-01T23:04:20.770Z,99200.88
2022-11-01T23:06:49.559Z,99201.16
2022-11-01T23:09:19.483Z,99207.41
2022-11-01T23:12:13.179Z,99212.31
2022-11-01T23:14:45.483Z,99219.38
2022-11-01T23:17:25.147Z,99219.94
2022-11-01T23:19:55.437Z,99215.59
2022-11-01T23:22:24.209Z,99222.94
2022-11-01T23:24:52.419Z,99222.66
2022-11-01T23:27:20.181Z,99221.03
2022-11-01T23:29:49.535Z,99223.22
2022-11-01T23:32:15.893Z,99219.97
2022-11-01T23:34:42.310Z,99215.09
2022-11-01T23:37:15.187Z,99229.75
2022-11-01T23:39:42.047Z,99233.56
2022-11-01T23:42:16.182Z,99228.41
2022-11-01T23:47:36.916Z,99226.53
2022-11-01T23:50:19.240Z,99232.75
2022-11-01T23:52:55.572Z,99235.19
2022-11-01T23:55:29.414Z,99230.84
2022-11-01T23:57:58.641Z,99230.84
